createdAt,value
2018-09-26T00:03:01.651Z,3.23
2018-09-26T00:05:30.510Z,2.83
2018-09-26T00:07:59.383Z,3.33
2018-09-26T00:10:28.204Z,3.40
2018-09-26T00:12:57.275Z,2.97
2018-09-26T00:15:26.311Z,2.80
2018-09-26T00:17:55.144Z,2.70
2018-09-26T00:20:23.982Z,2.80
2018-09-26T00:22:53.135Z,3.13
2018-09-26T00:25:21.917Z,3.63
2018-09-26T00:27:50.707Z,2.87
2018-09-26T00:30:19.481Z,3.00
2018-09-26T00:32:48.464Z,3.00
2018-09-26T00:35:17.318Z,2.50
2018-09-26T00:37:46.438Z,2.77
2018-09-26T00:40:15.194Z,2.87
2018-09-26T00:42:43.999Z,3.03
2018-09-26T00:45:13.131Z,2.97
2018-09-26T00:47:42.267Z,2.93
2018-09-26T00:50:11.039Z,2.80
2018-09-26T00:52:40.162Z,2.53
2018-09-26T00:55:08.962Z,3.30
2018-09-26T00:57:37.783Z,3.07
2018-09-26T01:00:06.989Z,2.97
2018-09-26T01:02:35.768Z,3.20
2018-09-26T01:05:04.707Z,3.50
2018-09-26T01:07:33.465Z,2.97
2018-09-26T01:10:02.379Z,2.87
2018-09-26T01:12:31.155Z,2.80
2018-09-26T01:14:59.963Z,3.43
2018-09-26T01:17:28.850Z,2.80
2018-09-26T01:19:57.662Z,3.47
2018-09-26T01:22:26.578Z,3.60
2018-09-26T01:24:55.370Z,3.30
2018-09-26T01:27:24.168Z,3.60
2018-09-26T01:29:53.327Z,3.47
2018-09-26T01:32:22.106Z,2.97
2018-09-26T01:34:50.972Z,3.17
2018-09-26T01:37:19.727Z,3.50
2018-09-26T01:39:48.535Z,3.47
2018-09-26T01:42:17.410Z,4.20
2018-09-26T01:44:46.526Z,3.73
2018-09-26T01:47:15.465Z,4.23
2018-09-26T01:49:44.318Z,4.03
2018-09-26T01:52:13.125Z,4.57
2018-09-26T01:54:41.928Z,4.20
2018-09-26T01:57:10.699Z,4.20
2018-09-26T01:59:39.616Z,4.33
2018-09-26T02:02:08.442Z,4.77
2018-09-26T02:04:37.239Z,4.63
2018-09-26T02:07:06.068Z,4.13
2018-09-26T02:09:34.857Z,4.20
2018-09-26T02:12:03.780Z,4.33
2018-09-26T02:14:32.564Z,4.10
2018-09-26T02:17:01.367Z,4.77
2018-09-26T02:19:30.151Z,4.17
2018-09-26T02:21:58.996Z,4.73
2018-09-26T02:24:27.834Z,4.40
2018-09-26T02:26:56.663Z,4.43
2018-09-26T02:29:25.452Z,5.00
2018-09-26T02:31:54.299Z,4.73
2018-09-26T02:34:23.052Z,5.10
2018-09-26T02:36:51.940Z,5.10
2018-09-26T02:39:20.707Z,4.80
2018-09-26T02:41:49.594Z,4.70
2018-09-26T02:44:18.396Z,5.40
2018-09-26T02:46:47.256Z,5.07
2018-09-26T02:49:16.283Z,6.30
2018-09-26T02:51:45.068Z,5.17
2018-09-26T02:54:13.888Z,4.90
2018-09-26T02:56:42.655Z,5.37
2018-09-26T02:59:11.516Z,5.23
2018-09-26T03:01:40.359Z,5.20
2018-09-26T03:04:09.160Z,4.97
2018-09-26T03:06:37.932Z,5.53
2018-09-26T03:09:08.354Z,5.00
2018-09-26T03:11:37.123Z,4.80
2018-09-26T03:14:06.010Z,5.57
2018-09-26T03:16:34.807Z,6.33
2018-09-26T03:19:03.649Z,5.57
2018-09-26T03:21:32.386Z,5.93
2018-09-26T03:24:01.171Z,5.80
2018-09-26T03:26:30.004Z,5.50
2018-09-26T03:28:58.843Z,5.77
2018-09-26T03:31:27.975Z,4.97
2018-09-26T03:33:56.835Z,5.27
2018-09-26T03:36:25.578Z,5.50
2018-09-26T03:38:54.692Z,5.80
2018-09-26T03:41:23.455Z,5.63
2018-09-26T03:43:52.311Z,5.03
2018-09-26T03:46:27.088Z,6.27
2018-09-26T03:48:55.986Z,5.77
2018-09-26T03:51:24.782Z,5.73
2018-09-26T03:53:53.562Z,6.20
2018-09-26T03:56:22.358Z,5.20
2018-09-26T03:58:51.182Z,6.07
2018-09-26T04:01:20.020Z,5.40
2018-09-26T04:03:48.876Z,5.67
2018-09-26T04:06:17.681Z,5.40
2018-09-26T04:08:46.608Z,5.37
2018-09-26T04:11:15.406Z,5.57
2018-09-26T04:13:44.831Z,5.70
2018-09-26T04:16:13.649Z,5.60
2018-09-26T04:18:42.422Z,5.53
2018-09-26T04:21:11.258Z,6.03
2018-09-26T04:23:40.003Z,5.50
2018-09-26T04:26:08.950Z,5.30
2018-09-26T04:28:37.725Z,5.83
2018-09-26T04:31:06.596Z,5.67
2018-09-26T04:33:35.440Z,4.97
2018-09-26T04:36:04.245Z,5.47
2018-09-26T04:38:33.152Z,5.30
2018-09-26T04:41:02.280Z,5.30
2018-09-26T04:43:31.286Z,5.33
2018-09-26T04:46:00.145Z,6.00
2018-09-26T04:48:28.926Z,5.40
2018-09-26T04:50:57.905Z,5.57
2018-09-26T04:53:26.697Z,6.10
2018-09-26T04:55:55.522Z,5.90
2018-09-26T04:58:24.331Z,5.47
2018-09-26T05:00:53.075Z,4.90
2018-09-26T05:03:21.960Z,5.70
2018-09-26T05:05:50.741Z,5.73
2018-09-26T05:08:19.616Z,4.80
2018-09-26T05:10:48.379Z,4.90
2018-09-26T05:13:17.236Z,5.33
2018-09-26T05:15:46.104Z,5.67
2018-09-26T05:18:14.915Z,4.93
2018-09-26T05:20:43.690Z,5.13
2018-09-26T05:23:12.535Z,5.23
2018-09-26T05:25:41.280Z,5.37
2018-09-26T05:28:10.217Z,5.40
2018-09-26T05:30:38.980Z,4.80
2018-09-26T05:33:07.843Z,5.00
2018-09-26T05:35:36.617Z,5.40
2018-09-26T05:38:05.424Z,5.10
2018-09-26T05:40:34.891Z,5.07
2018-09-26T05:43:03.703Z,5.40
2018-09-26T05:45:32.484Z,5.07
2018-09-26T05:48:01.331Z,5.00
2018-09-26T05:50:30.207Z,5.13
2018-09-26T05:52:59.002Z,4.90
2018-09-26T05:55:27.851Z,5.13
2018-09-26T05:57:56.625Z,4.87
2018-09-26T06:00:25.442Z,4.87
2018-09-26T06:02:54.228Z,4.20
2018-09-26T06:05:23.532Z,4.60
2018-09-26T06:07:52.530Z,4.30
2018-09-26T06:10:21.339Z,4.60
2018-09-26T06:12:50.180Z,4.87
2018-09-26T06:15:19.260Z,4.13
2018-09-26T06:17:48.410Z,4.40
2018-09-26T06:20:17.239Z,4.20
2018-09-26T06:22:46.079Z,4.50
2018-09-26T06:25:15.003Z,4.47
2018-09-26T06:27:43.799Z,3.90
2018-09-26T06:30:12.740Z,4.10
2018-09-26T06:32:41.512Z,3.83
2018-09-26T06:35:10.496Z,3.90
2018-09-26T06:37:39.276Z,3.13
2018-09-26T06:40:08.269Z,3.63
2018-09-26T06:42:37.108Z,3.00
2018-09-26T06:45:09.266Z,3.03
2018-09-26T06:47:38.106Z,2.80
2018-09-26T06:50:07.081Z,3.60
2018-09-26T06:52:35.867Z,3.07
2018-09-26T06:55:04.732Z,3.13
2018-09-26T06:57:33.567Z,3.17
2018-09-26T07:00:02.361Z,3.50
2018-09-26T07:02:31.393Z,2.90
2018-09-26T07:05:00.182Z,3.23
2018-09-26T07:07:29.066Z,3.37
2018-09-26T07:09:57.832Z,3.20
2018-09-26T07:12:26.648Z,3.00
2018-09-26T07:14:55.383Z,2.93
2018-09-26T07:17:24.264Z,2.77
2018-09-26T07:19:53.135Z,2.90
2018-09-26T07:22:21.977Z,2.60
2018-09-26T07:24:50.765Z,2.77
2018-09-26T07:27:19.628Z,2.50
2018-09-26T07:29:48.439Z,2.70
2018-09-26T07:32:17.433Z,2.37
2018-09-26T07:34:46.220Z,2.77
2018-09-26T07:37:15.085Z,2.60
2018-09-26T07:39:43.872Z,2.40
2018-09-26T07:42:12.659Z,2.50
2018-09-26T07:44:41.575Z,2.67
2018-09-26T07:47:10.341Z,2.20
2018-09-26T07:49:39.192Z,2.53
2018-09-26T07:52:07.972Z,2.50
2018-09-26T07:54:36.823Z,1.70
2018-09-26T07:57:05.909Z,2.27
2018-09-26T07:59:34.750Z,2.13
2018-09-26T08:02:03.508Z,2.20
2018-09-26T08:04:32.310Z,2.10
2018-09-26T08:07:01.126Z,2.10
2018-09-26T08:09:30.015Z,2.27
2018-09-26T08:11:58.815Z,2.17
2018-09-26T08:14:27.737Z,2.30
2018-09-26T08:16:56.880Z,2.00
2018-09-26T08:19:25.689Z,2.00
2018-09-26T08:21:54.532Z,2.13
2018-09-26T08:24:23.724Z,2.77
2018-09-26T08:26:52.534Z,1.80
2018-09-26T08:29:21.376Z,1.70
2018-09-26T08:31:50.530Z,2.00
2018-09-26T08:34:19.411Z,2.30
2018-09-26T08:36:48.171Z,2.00
2018-09-26T08:39:16.956Z,2.27
2018-09-26T08:41:45.744Z,2.00
2018-09-26T08:44:14.718Z,2.10
2018-09-26T08:46:43.716Z,2.17
2018-09-26T08:49:12.579Z,2.67
2018-09-26T08:51:41.389Z,2.17
2018-09-26T08:54:10.168Z,2.73
2018-09-26T08:56:38.980Z,2.30
2018-09-26T08:59:07.847Z,1.80
2018-09-26T09:01:42.109Z,2.10
2018-09-26T09:04:10.907Z,2.20
2018-09-26T09:06:39.749Z,2.43
2018-09-26T09:09:09.082Z,2.80
2018-09-26T09:11:38.416Z,2.30
2018-09-26T09:14:07.530Z,2.70
2018-09-26T09:16:36.331Z,2.40
2018-09-26T09:19:05.171Z,3.10
2018-09-26T09:21:33.994Z,3.00
2018-09-26T09:24:02.865Z,2.83
2018-09-26T09:26:31.712Z,3.13
2018-09-26T09:29:00.465Z,3.37
2018-09-26T09:31:29.289Z,3.00
2018-09-26T09:33:58.053Z,3.40
2018-09-26T09:36:26.997Z,3.60
2018-09-26T09:38:55.721Z,3.40
2018-09-26T09:41:24.507Z,3.57
2018-09-26T09:43:53.304Z,3.57
2018-09-26T09:46:22.084Z,3.57
2018-09-26T09:48:51.133Z,4.20
2018-09-26T09:51:19.915Z,4.00
2018-09-26T09:53:49.070Z,4.40
2018-09-26T09:56:17.901Z,4.00
2018-09-26T09:58:46.695Z,4.47
2018-09-26T10:01:20.974Z,4.07
2018-09-26T10:03:49.885Z,4.20
2018-09-26T10:06:18.627Z,4.33
2018-09-26T10:08:47.469Z,4.33
2018-09-26T10:11:16.339Z,4.40
2018-09-26T10:13:45.920Z,3.90
2018-09-26T10:16:14.884Z,3.90
2018-09-26T10:18:44.311Z,4.40
2018-09-26T10:21:13.207Z,4.67
2018-09-26T10:23:42.068Z,4.43
2018-09-26T10:26:10.945Z,4.07
2018-09-26T10:28:40.384Z,4.87
2018-09-26T10:31:09.360Z,3.50
2018-09-26T10:33:38.176Z,3.77
2018-09-26T10:36:07.225Z,4.23
2018-09-26T10:38:36.039Z,4.73
2018-09-26T10:41:04.825Z,3.70
2018-09-26T10:43:33.613Z,3.90
2018-09-26T10:46:02.400Z,4.47
2018-09-26T10:48:31.399Z,4.10
2018-09-26T10:51:00.212Z,4.33
2018-09-26T10:53:28.976Z,3.63
2018-09-26T10:55:57.780Z,4.07
2018-09-26T10:58:26.540Z,3.67
2018-09-26T11:00:55.404Z,4.47
2018-09-26T11:03:24.176Z,3.37
2018-09-26T11:05:53.016Z,4.43
2018-09-26T11:08:21.900Z,4.03
2018-09-26T11:10:50.683Z,3.30
2018-09-26T11:13:19.502Z,3.97
2018-09-26T11:15:48.345Z,3.37
2018-09-26T11:18:17.120Z,3.70
2018-09-26T11:20:46.166Z,3.20
2018-09-26T11:23:14.977Z,3.23
2018-09-26T11:25:43.842Z,3.33
2018-09-26T11:28:12.629Z,3.40
2018-09-26T11:30:41.432Z,3.70
2018-09-26T11:33:10.366Z,3.50
2018-09-26T11:35:39.762Z,3.63
2018-09-26T11:38:08.787Z,3.43
2018-09-26T11:40:37.624Z,3.80
2018-09-26T11:43:06.604Z,3.43
2018-09-26T11:45:35.422Z,3.33
2018-09-26T11:48:04.275Z,3.67
2018-09-26T11:50:33.079Z,3.47
2018-09-26T11:53:01.869Z,3.40
2018-09-26T11:55:30.655Z,3.80
2018-09-26T11:57:59.784Z,3.23
2018-09-26T12:00:28.534Z,3.07
2018-09-26T12:02:57.394Z,2.87
2018-09-26T12:05:26.159Z,3.40
2018-09-26T12:07:54.967Z,3.20
2018-09-26T12:10:23.823Z,3.70
2018-09-26T12:12:52.583Z,3.30
2018-09-26T12:15:21.431Z,3.10
2018-09-26T12:17:50.245Z,3.27
2018-09-26T12:20:19.011Z,3.20
2018-09-26T12:22:48.079Z,3.47
2018-09-26T12:25:17.183Z,3.37
2018-09-26T12:27:46.687Z,2.70
2018-09-26T12:30:15.474Z,3.20
2018-09-26T12:32:44.336Z,3.10
2018-09-26T12:35:13.276Z,3.30
2018-09-26T12:37:42.128Z,3.17
2018-09-26T12:40:11.066Z,3.17
2018-09-26T12:42:39.936Z,3.33
2018-09-26T12:45:09.649Z,3.00
2018-09-26T12:47:38.475Z,2.90
2018-09-26T12:50:07.355Z,2.67
2018-09-26T12:52:36.296Z,3.03
2018-09-26T12:55:05.579Z,3.10
2018-09-26T12:57:34.411Z,2.70
2018-09-26T13:00:03.284Z,2.97
2018-09-26T13:02:32.123Z,3.07
2018-09-26T13:05:00.966Z,2.23
2018-09-26T13:07:29.724Z,2.73
2018-09-26T13:09:58.541Z,2.90
2018-09-26T13:12:27.343Z,2.93
2018-09-26T13:14:56.169Z,2.63
2018-09-26T13:17:25.181Z,2.50
2018-09-26T13:19:53.988Z,2.30
2018-09-26T13:22:22.788Z,2.80
2018-09-26T13:24:51.600Z,3.23
2018-09-26T13:27:20.356Z,2.33
2018-09-26T13:29:49.228Z,2.80
2018-09-26T13:32:18.075Z,3.00
2018-09-26T13:34:46.834Z,2.77
2018-09-26T13:37:15.682Z,2.57
2018-09-26T13:39:44.524Z,2.77
2018-09-26T13:42:13.423Z,3.17
2018-09-26T13:44:42.227Z,3.40
2018-09-26T13:47:10.999Z,2.73
2018-09-26T13:49:39.870Z,3.20
2018-09-26T13:52:08.710Z,2.70
2018-09-26T13:54:37.484Z,2.40
2018-09-26T13:57:06.465Z,2.20
2018-09-26T13:59:35.251Z,2.80
2018-09-26T14:02:04.062Z,3.07
2018-09-26T14:04:32.814Z,2.57
2018-09-26T14:07:01.676Z,3.30
2018-09-26T14:09:30.465Z,3.30
2018-09-26T14:11:59.276Z,2.60
2018-09-26T14:14:28.099Z,2.70
2018-09-26T14:16:56.897Z,3.13
2018-09-26T14:19:26.152Z,3.10
2018-09-26T14:21:54.952Z,3.00
2018-09-26T14:24:23.740Z,2.67
2018-09-26T14:26:52.562Z,3.00
2018-09-26T14:29:21.334Z,4.27
2018-09-26T14:31:50.471Z,3.30
2018-09-26T14:34:19.336Z,3.43
2018-09-26T14:36:48.139Z,3.67
2018-09-26T14:39:16.972Z,2.80
2018-09-26T14:41:45.708Z,3.10
2018-09-26T14:44:14.854Z,2.93
2018-09-26T14:46:43.644Z,3.17
2018-09-26T14:49:12.506Z,3.80
2018-09-26T14:51:41.336Z,4.43
2018-09-26T14:54:10.108Z,3.60
2018-09-26T14:56:38.942Z,3.83
2018-09-26T14:59:07.812Z,3.60
2018-09-26T15:01:36.863Z,3.23
2018-09-26T15:04:05.794Z,3.07
2018-09-26T15:06:34.612Z,3.17
2018-09-26T15:09:04.812Z,4.20
2018-09-26T15:11:33.595Z,4.07
2018-09-26T15:14:02.433Z,4.17
2018-09-26T15:16:31.192Z,3.60
2018-09-26T15:19:00.092Z,3.50
2018-09-26T15:21:28.941Z,3.40
2018-09-26T15:23:57.752Z,3.27
2018-09-26T15:26:26.578Z,3.27
2018-09-26T15:28:55.374Z,3.60
2018-09-26T15:31:24.143Z,4.30
2018-09-26T15:33:52.993Z,3.90
2018-09-26T15:36:21.787Z,3.67
2018-09-26T15:38:50.599Z,4.10
2018-09-26T15:41:19.340Z,3.60
2018-09-26T15:43:48.134Z,4.27
2018-09-26T15:46:17.283Z,4.23
2018-09-26T15:48:46.461Z,4.70
2018-09-26T15:51:15.228Z,4.37
2018-09-26T15:53:44.051Z,4.00
2018-09-26T15:56:12.865Z,4.00
2018-09-26T15:58:41.663Z,3.90
2018-09-26T16:01:10.462Z,3.70
2018-09-26T16:03:39.216Z,4.00
2018-09-26T16:06:08.096Z,5.17
2018-09-26T16:08:36.872Z,4.03
2018-09-26T16:11:05.783Z,4.20
2018-09-26T16:13:34.584Z,4.23
2018-09-26T16:16:03.676Z,4.80
2018-09-26T16:18:32.446Z,4.10
2018-09-26T16:21:01.555Z,4.07
2018-09-26T16:23:30.388Z,4.30
2018-09-26T16:25:59.245Z,4.30
2018-09-26T16:28:28.154Z,4.00
2018-09-26T16:30:56.836Z,4.47
2018-09-26T16:33:25.633Z,4.43
2018-09-26T16:35:54.550Z,4.10
2018-09-26T16:38:23.382Z,4.60
2018-09-26T16:40:52.205Z,3.90
2018-09-26T16:43:21.816Z,4.80
2018-09-26T16:45:52.112Z,4.53
2018-09-26T16:48:21.126Z,4.30
2018-09-26T16:50:50.324Z,4.50
2018-09-26T16:53:19.286Z,4.23
2018-09-26T16:55:48.095Z,4.63
2018-09-26T16:58:16.912Z,4.20
2018-09-26T17:00:45.807Z,5.40
2018-09-26T17:03:14.584Z,4.43
2018-09-26T17:05:43.377Z,4.73
2018-09-26T17:08:12.246Z,4.43
2018-09-26T17:10:41.127Z,4.27
2018-09-26T17:13:10.032Z,4.93
2018-09-26T17:15:38.846Z,4.73
2018-09-26T17:18:07.689Z,4.77
2018-09-26T17:20:36.471Z,5.50
2018-09-26T17:23:05.348Z,4.00
2018-09-26T17:25:34.154Z,4.77
2018-09-26T17:28:02.960Z,4.37
2018-09-26T17:30:31.712Z,4.20
2018-09-26T17:33:00.544Z,4.43
2018-09-26T17:35:29.328Z,3.97
2018-09-26T17:37:58.257Z,4.73
2018-09-26T17:40:27.197Z,4.30
2018-09-26T17:42:55.919Z,4.07
2018-09-26T17:45:24.727Z,4.50
2018-09-26T17:47:53.519Z,4.07
2018-09-26T17:50:22.411Z,4.23
2018-09-26T17:52:51.372Z,4.30
2018-09-26T17:55:20.184Z,4.83
2018-09-26T17:57:49.370Z,4.87
2018-09-26T18:00:18.259Z,4.23
2018-09-26T18:02:47.047Z,4.67
2018-09-26T18:05:15.956Z,4.03
2018-09-26T18:07:44.752Z,4.13
2018-09-26T18:10:13.567Z,4.63
2018-09-26T18:12:42.408Z,4.30
2018-09-26T18:15:12.189Z,4.77
2018-09-26T18:17:41.005Z,4.53
2018-09-26T18:20:09.848Z,4.03
2018-09-26T18:22:38.600Z,4.43
2018-09-26T18:25:07.906Z,4.60
2018-09-26T18:27:36.840Z,4.33
2018-09-26T18:30:06.249Z,4.30
2018-09-26T18:32:35.028Z,3.87
2018-09-26T18:35:03.876Z,4.23
2018-09-26T18:37:32.628Z,4.40
2018-09-26T18:40:01.552Z,4.37
2018-09-26T18:42:30.329Z,4.83
2018-09-26T18:45:05.602Z,4.60
2018-09-26T18:47:34.305Z,5.63
2018-09-26T18:50:04.120Z,5.03
2018-09-26T18:52:33.812Z,4.60
2018-09-26T18:55:07.141Z,4.83
2018-09-26T18:57:35.930Z,4.20
2018-09-26T19:00:05.005Z,4.47
2018-09-26T19:02:33.808Z,4.57
2018-09-26T19:05:03.052Z,5.00
2018-09-26T19:07:31.745Z,4.97
2018-09-26T19:10:00.577Z,4.70
2018-09-26T19:12:29.648Z,4.53
2018-09-26T19:14:58.770Z,4.90
2018-09-26T19:17:27.581Z,4.70
2018-09-26T19:19:56.378Z,4.30
2018-09-26T19:22:25.262Z,4.63
2018-09-26T19:24:54.161Z,5.07
2018-09-26T19:27:23.103Z,5.03
2018-09-26T19:29:51.896Z,4.77
2018-09-26T19:32:20.753Z,4.67
2018-09-26T19:34:49.529Z,4.53
2018-09-26T19:37:18.417Z,4.90
2018-09-26T19:39:47.245Z,5.10
2018-09-26T19:42:16.107Z,4.70
2018-09-26T19:44:44.909Z,4.40
2018-09-26T19:47:13.785Z,4.73
2018-09-26T19:49:42.650Z,4.80
2018-09-26T19:52:11.880Z,5.33
2018-09-26T19:54:40.716Z,4.77
2018-09-26T19:57:09.556Z,4.77
2018-09-26T19:59:38.342Z,5.40
2018-09-26T20:02:07.539Z,4.67
2018-09-26T20:04:36.454Z,5.47
2018-09-26T20:07:05.466Z,4.90
2018-09-26T20:09:34.288Z,5.27
2018-09-26T20:12:03.092Z,5.60
2018-09-26T20:14:31.963Z,5.93
2018-09-26T20:17:00.772Z,5.47
2018-09-26T20:19:29.592Z,5.53
2018-09-26T20:21:58.409Z,5.50
2018-09-26T20:24:27.247Z,5.13
2018-09-26T20:26:56.142Z,4.70
2018-09-26T20:29:25.071Z,5.47
2018-09-26T20:31:53.795Z,5.47
2018-09-26T20:34:22.604Z,5.67
2018-09-26T20:36:52.713Z,5.47
2018-09-26T20:39:21.608Z,5.33
2018-09-26T20:41:50.391Z,5.90
2018-09-26T20:44:19.295Z,5.80
2018-09-26T20:46:48.094Z,5.10
2018-09-26T20:49:16.948Z,5.47
2018-09-26T20:51:45.808Z,6.20
2018-09-26T20:54:15.000Z,5.47
2018-09-26T20:56:43.776Z,5.10
2018-09-26T20:59:13.005Z,4.83
2018-09-26T21:01:41.884Z,5.17
2018-09-26T21:04:10.707Z,5.27
2018-09-26T21:06:39.548Z,5.10
2018-09-26T21:09:10.105Z,5.03
2018-09-26T21:11:39.292Z,4.83
2018-09-26T21:14:08.412Z,4.63
2018-09-26T21:16:37.404Z,4.17
2018-09-26T21:19:06.293Z,4.57
2018-09-26T21:21:35.145Z,4.50
2018-09-26T21:24:03.965Z,5.20
2018-09-26T21:26:32.795Z,4.10
2018-09-26T21:29:01.645Z,4.00
2018-09-26T21:31:30.494Z,4.50
2018-09-26T21:33:59.285Z,4.47
2018-09-26T21:36:28.130Z,4.57
2018-09-26T21:38:56.999Z,4.03
2018-09-26T21:41:25.864Z,4.47
2018-09-26T21:43:54.664Z,4.63
2018-09-26T21:46:28.480Z,4.30
2018-09-26T21:48:57.271Z,3.73
2018-09-26T21:51:26.189Z,4.07
2018-09-26T21:53:55.073Z,3.93
2018-09-26T21:56:23.925Z,3.93
2018-09-26T21:58:53.037Z,4.33
2018-09-26T22:01:21.935Z,4.33
2018-09-26T22:03:50.732Z,4.07
2018-09-26T22:06:19.872Z,4.20
2018-09-26T22:08:48.701Z,4.70
2018-09-26T22:11:17.520Z,4.63
2018-09-26T22:13:46.376Z,5.20
2018-09-26T22:16:15.207Z,4.87
2018-09-26T22:18:44.086Z,4.30
2018-09-26T22:21:12.893Z,4.70
2018-09-26T22:23:41.755Z,4.10
2018-09-26T22:26:10.568Z,4.97
2018-09-26T22:28:39.392Z,3.63
2018-09-26T22:31:08.423Z,4.30
2018-09-26T22:33:37.262Z,4.20
2018-09-26T22:36:06.106Z,4.07
2018-09-26T22:38:34.928Z,4.70
2018-09-26T22:41:03.761Z,4.13
2018-09-26T22:43:32.644Z,4.00
2018-09-26T22:46:01.732Z,4.47
2018-09-26T22:48:30.613Z,3.90
2018-09-26T22:50:59.433Z,4.10
2018-09-26T22:53:28.264Z,4.00
2018-09-26T22:55:57.281Z,4.10
2018-09-26T22:58:26.128Z,4.13
2018-09-26T23:00:54.935Z,4.23
2018-09-26T23:03:23.736Z,4.23
2018-09-26T23:05:52.583Z,4.70
2018-09-26T23:08:21.439Z,4.80
2018-09-26T23:10:50.642Z,4.20
2018-09-26T23:13:19.448Z,4.30
2018-09-26T23:15:48.314Z,4.07
2018-09-26T23:18:17.199Z,4.17
2018-09-26T23:20:46.155Z,4.33
2018-09-26T23:23:14.960Z,4.63
2018-09-26T23:25:43.801Z,4.33
2018-09-26T23:28:12.615Z,4.57
2018-09-26T23:30:41.461Z,4.50
2018-09-26T23:33:10.649Z,4.73
2018-09-26T23:35:39.485Z,4.23
2018-09-26T23:38:08.281Z,4.27
2018-09-26T23:40:37.134Z,4.80
2018-09-26T23:43:06.060Z,4.67
2018-09-26T23:45:34.969Z,4.87
2018-09-26T23:48:03.781Z,4.80
2018-09-26T23:50:32.695Z,4.10
2018-09-26T23:53:01.577Z,3.93
2018-09-26T23:55:30.409Z,4.10
2018-09-26T23:57:59.271Z,4.00
